Gove, Kansas
Current Conditions -  °F | °C
As of 4:55 PM on Wednesday 22 Oct 2014 (Local Time) from KCBK Reporting Station
Clear Clear  
Wind Chill: 72°   Ceiling: Unl
Heat Index: 72°   Visibility: 10mi
Dew Point: 50°   Wind: 9mph
Humidity: 46%   Direction: 10°N
Pressure: 30.02"   Gusts: NA
Location:  38.96°N, 100.49°W
Report Text: KCBK 222155Z AUTO 01008KT 10SM CLR 22/10 A3002 RMK AO2
Loading
Personal Weather Stations






























Interactive Weather Map
Tropical Storm Tracking
New forecast layout! Learn more

10-Day Weather Forecast

Advertisements
Track Severe Weather on mobile